sensor_id;sensor_type;location;lat;lon;timestamp;pressure;altitude;pressure_sealevel;temperature;humidity
55068;BME280;40965;52.368;9.712;2023-09-12T00:01:17;100528.06;;;22.41;90.69
55068;BME280;40965;52.368;9.712;2023-09-12T00:03:43;100521.22;;;22.37;90.79
55068;BME280;40965;52.368;9.712;2023-09-12T00:06:22;100534.00;;;22.30;91.97
55068;BME280;40965;52.368;9.712;2023-09-12T00:08:54;100555.81;;;22.23;93.03
55068;BME280;40965;52.368;9.712;2023-09-12T00:11:20;100566.47;;;22.23;93.32
55068;BME280;40965;52.368;9.712;2023-09-12T00:13:51;100575.59;;;22.19;92.81
55068;BME280;40965;52.368;9.712;2023-09-12T00:16:18;100568.03;;;22.11;94.29
55068;BME280;40965;52.368;9.712;2023-09-12T00:18:44;100545.09;;;22.08;94.37
55068;BME280;40965;52.368;9.712;2023-09-12T00:21:11;100532.25;;;22.01;94.90
55068;BME280;40965;52.368;9.712;2023-09-12T00:23:37;100529.63;;;21.99;95.06
55068;BME280;40965;52.368;9.712;2023-09-12T00:26:04;100525.28;;;21.98;95.46
55068;BME280;40965;52.368;9.712;2023-09-12T00:28:32;100522.69;;;21.96;95.63
55068;BME280;40965;52.368;9.712;2023-09-12T00:30:59;100515.91;;;21.91;95.83
55068;BME280;40965;52.368;9.712;2023-09-12T00:33:26;100499.09;;;21.90;96.09
55068;BME280;40965;52.368;9.712;2023-09-12T00:35:52;100501.16;;;21.85;96.93
55068;BME280;40965;52.368;9.712;2023-09-12T00:38:19;100496.94;;;21.81;97.24
55068;BME280;40965;52.368;9.712;2023-09-12T00:40:45;100498.94;;;21.77;97.65
55068;BME280;40965;52.368;9.712;2023-09-12T00:43:12;100483.91;;;21.76;97.46
55068;BME280;40965;52.368;9.712;2023-09-12T00:45:39;100477.78;;;21.74;97.23
55068;BME280;40965;52.368;9.712;2023-09-12T00:48:07;100478.91;;;21.70;97.63
55068;BME280;40965;52.368;9.712;2023-09-12T00:50:35;100466.63;;;21.68;97.92
55068;BME280;40965;52.368;9.712;2023-09-12T00:53:03;100477.47;;;21.64;98.43
55068;BME280;40965;52.368;9.712;2023-09-12T00:55:32;100476.78;;;21.61;98.66
55068;BME280;40965;52.368;9.712;2023-09-12T00:58:01;100466.13;;;21.61;98.08
55068;BME280;40965;52.368;9.712;2023-09-12T01:00:27;100469.09;;;21.56;98.73
55068;BME280;40965;52.368;9.712;2023-09-12T01:02:55;100471.75;;;21.56;98.28
55068;BME280;40965;52.368;9.712;2023-09-12T01:05:23;100462.16;;;21.52;98.78
55068;BME280;40965;52.368;9.712;2023-09-12T01:07:50;100466.06;;;21.46;100.00
55068;BME280;40965;52.368;9.712;2023-09-12T01:10:17;100462.88;;;21.40;100.00
55068;BME280;40965;52.368;9.712;2023-09-12T01:12:44;100471.03;;;21.37;100.00
55068;BME280;40965;52.368;9.712;2023-09-12T01:15:10;100468.13;;;21.41;99.62
55068;BME280;40965;52.368;9.712;2023-09-12T01:17:43;100460.03;;;21.43;100.00
55068;BME280;40965;52.368;9.712;2023-09-12T01:20:24;100462.09;;;21.38;100.00
55068;BME280;40965;52.368;9.712;2023-09-12T01:26:01;100464.84;;;21.36;100.00
55068;BME280;40965;52.368;9.712;2023-09-12T01:28:38;100464.00;;;21.36;99.90
55068;BME280;40965;52.368;9.712;2023-09-12T01:31:08;100466.78;;;21.34;100.00
55068;BME280;40965;52.368;9.712;2023-09-12T01:33:37;100477.31;;;21.36;100.00
55068;BME280;40965;52.368;9.712;2023-09-12T01:36:04;100481.88;;;21.34;100.00
55068;BME280;40965;52.368;9.712;2023-09-12T01:38:31;100482.06;;;21.30;100.00
55068;BME280;40965;52.368;9.712;2023-09-12T01:40:57;100489.94;;;21.32;100.00
55068;BME280;40965;52.368;9.712;2023-09-12T01:43:25;100495.59;;;21.26;100.00
55068;BME280;40965;52.368;9.712;2023-09-12T01:45:54;100485.25;;;21.21;100.00
55068;BME280;40965;52.368;9.712;2023-09-12T01:48:25;100495.88;;;21.21;100.00
55068;BME280;40965;52.368;9.712;2023-09-12T01:50:59;100496.22;;;21.15;100.00
55068;BME280;40965;52.368;9.712;2023-09-12T01:53:28;100485.91;;;21.09;100.00
55068;BME280;40965;52.368;9.712;2023-09-12T01:55:56;100493.19;;;21.05;100.00
55068;BME280;40965;52.368;9.712;2023-09-12T01:58:25;100485.22;;;21.05;100.00
55068;BME280;40965;52.368;9.712;2023-09-12T02:00:52;100491.66;;;21.01;100.00
55068;BME280;40965;52.368;9.712;2023-09-12T02:03:18;100490.97;;;20.97;100.00
55068;BME280;40965;52.368;9.712;2023-09-12T02:05:45;100489.19;;;20.98;100.00
55068;BME280;40965;52.368;9.712;2023-09-12T02:08:12;100500.56;;;21.00;100.00
55068;BME280;40965;52.368;9.712;2023-09-12T02:10:42;100500.84;;;20.95;100.00
55068;BME280;40965;52.368;9.712;2023-09-12T02:13:08;100499.13;;;20.94;100.00
55068;BME280;40965;52.368;9.712;2023-09-12T02:15:35;100511.06;;;20.87;100.00
55068;BME280;40965;52.368;9.712;2023-09-12T02:18:01;100514.66;;;20.86;100.00
55068;BME280;40965;52.368;9.712;2023-09-12T02:20:28;100519.19;;;20.84;100.00
55068;BME280;40965;52.368;9.712;2023-09-12T02:22:55;100516.63;;;20.82;100.00
55068;BME280;40965;52.368;9.712;2023-09-12T02:25:21;100529.91;;;20.82;100.00
55068;BME280;40965;52.368;9.712;2023-09-12T02:27:48;100528.19;;;20.81;100.00
55068;BME280;40965;52.368;9.712;2023-09-12T02:30:14;100536.25;;;20.80;100.00
55068;BME280;40965;52.368;9.712;2023-09-12T02:32:42;100551.38;;;20.79;100.00
55068;BME280;40965;52.368;9.712;2023-09-12T02:35:09;100557.53;;;20.80;100.00
55068;BME280;40965;52.368;9.712;2023-09-12T02:37:38;100561.84;;;20.82;100.00
55068;BME280;40965;52.368;9.712;2023-09-12T02:40:10;100569.81;;;20.82;100.00
55068;BME280;40965;52.368;9.712;2023-09-12T02:42:39;100567.25;;;20.81;100.00
55068;BME280;40965;52.368;9.712;2023-09-12T02:45:06;100575.47;;;20.76;100.00
55068;BME280;40965;52.368;9.712;2023-09-12T02:47:33;100559.34;;;20.79;100.00
55068;BME280;40965;52.368;9.712;2023-09-12T02:50:00;100567.25;;;20.81;100.00
55068;BME280;40965;52.368;9.712;2023-09-12T02:52:26;100563.56;;;20.84;100.00
55068;BME280;40965;52.368;9.712;2023-09-12T02:54:53;100551.13;;;20.84;100.00
55068;BME280;40965;52.368;9.712;2023-09-12T02:57:21;100553.03;;;20.82;100.00
55068;BME280;40965;52.368;9.712;2023-09-12T02:59:48;100555.72;;;20.80;100.00
55068;BME280;40965;52.368;9.712;2023-09-12T03:02:15;100544.25;;;20.80;100.00
55068;BME280;40965;52.368;9.712;2023-09-12T03:04:41;100543.47;;;20.78;100.00
55068;BME280;40965;52.368;9.712;2023-09-12T03:07:08;100537.28;;;20.77;100.00
55068;BME280;40965;52.368;9.712;2023-09-12T03:09:34;100516.19;;;20.74;100.00
55068;BME280;40965;52.368;9.712;2023-09-12T03:12:03;100509.97;;;20.74;100.00
55068;BME280;40965;52.368;9.712;2023-09-12T03:14:31;100515.69;;;20.66;100.00
55068;BME280;40965;52.368;9.712;2023-09-12T03:16:57;100513.38;;;20.60;100.00
55068;BME280;40965;52.368;9.712;2023-09-12T03:19:26;100518.75;;;20.58;100.00
55068;BME280;40965;52.368;9.712;2023-09-12T03:21:55;100528.38;;;20.61;100.00
55068;BME280;40965;52.368;9.712;2023-09-12T03:24:25;100537.31;;;20.60;100.00
55068;BME280;40965;52.368;9.712;2023-09-12T03:26:54;100536.34;;;20.61;100.00
55068;BME280;40965;52.368;9.712;2023-09-12T03:29:24;100539.72;;;20.64;100.00
55068;BME280;40965;52.368;9.712;2023-09-12T03:31:51;100552.25;;;20.62;100.00
55068;BME280;40965;52.368;9.712;2023-09-12T03:34:17;100546.03;;;20.62;100.00
55068;BME280;40965;52.368;9.712;2023-09-12T03:36:44;100568.97;;;20.64;100.00
55068;BME280;40965;52.368;9.712;2023-09-12T03:39:13;100589.53;;;20.61;100.00
55068;BME280;40965;52.368;9.712;2023-09-12T03:41:43;100614.34;;;20.61;100.00
55068;BME280;40965;52.368;9.712;2023-09-12T03:44:29;100623.97;;;20.64;100.00
55068;BME280;40965;52.368;9.712;2023-09-12T03:46:56;100629.28;;;20.64;100.00
55068;BME280;40965;52.368;9.712;2023-09-12T03:49:23;100625.84;;;20.62;100.00
55068;BME280;40965;52.368;9.712;2023-09-12T03:51:49;100618.97;;;20.58;100.00
55068;BME280;40965;52.368;9.712;2023-09-12T03:54:16;100609.88;;;20.62;100.00
55068;BME280;40965;52.368;9.712;2023-09-12T03:56:42;100614.34;;;20.61;100.00
55068;BME280;40965;52.368;9.712;2023-09-12T03:59:09;100615.09;;;20.63;100.00
55068;BME280;40965;52.368;9.712;2023-09-12T04:01:37;100610.03;;;20.59;100.00
55068;BME280;40965;52.368;9.712;2023-09-12T04:04:03;100614.88;;;20.50;100.00
55068;BME280;40965;52.368;9.712;2023-09-12T04:06:30;100624.59;;;20.52;100.00
55068;BME280;40965;52.368;9.712;2023-09-12T04:08:57;100605.44;;;20.45;100.00
55068;BME280;40965;52.368;9.712;2023-09-12T04:11:23;100592.97;;;20.45;100.00
55068;BME280;40965;52.368;9.712;2023-09-12T04:13:50;100609.91;;;20.44;100.00
55068;BME280;40965;52.368;9.712;2023-09-12T04:16:16;100585.72;;;20.49;100.00
55068;BME280;40965;52.368;9.712;2023-09-12T04:18:44;100547.72;;;20.29;100.00
55068;BME280;40965;52.368;9.712;2023-09-12T04:21:10;100533.50;;;20.13;100.00
55068;BME280;40965;52.368;9.712;2023-09-12T04:23:37;100539.47;;;20.18;100.00
55068;BME280;40965;52.368;9.712;2023-09-12T04:26:06;100534.59;;;20.26;100.00
55068;BME280;40965;52.368;9.712;2023-09-12T04:28:33;100537.16;;;20.28;100.00
55068;BME280;40965;52.368;9.712;2023-09-12T04:31:03;100520.38;;;20.27;100.00
55068;BME280;40965;52.368;9.712;2023-09-12T04:33:30;100527.56;;;20.25;100.00
55068;BME280;40965;52.368;9.712;2023-09-12T04:36:03;100522.63;;;20.17;100.00
55068;BME280;40965;52.368;9.712;2023-09-12T04:38:29;100523.66;;;20.15;100.00
55068;BME280;40965;52.368;9.712;2023-09-12T04:41:00;100512.56;;;20.07;100.00
55068;BME280;40965;52.368;9.712;2023-09-12T04:43:33;100512.88;;;20.00;100.00
55068;BME280;40965;52.368;9.712;2023-09-12T04:46:02;100513.28;;;20.10;100.00
55068;BME280;40965;52.368;9.712;2023-09-12T04:48:30;100512.09;;;20.16;100.00
55068;BME280;40965;52.368;9.712;2023-09-12T04:50:57;100520.69;;;20.21;100.00
55068;BME280;40965;52.368;9.712;2023-09-12T04:53:24;100514.66;;;20.17;100.00
55068;BME280;40965;52.368;9.712;2023-09-12T04:55:54;100507.09;;;20.27;100.00
55068;BME280;40965;52.368;9.712;2023-09-12T04:58:20;100506.22;;;20.27;100.00
55068;BME280;40965;52.368;9.712;2023-09-12T05:00:47;100502.63;;;20.28;100.00
55068;BME280;40965;52.368;9.712;2023-09-12T05:03:13;100503.47;;;20.28;100.00
55068;BME280;40965;52.368;9.712;2023-09-12T05:05:40;100509.19;;;20.38;100.00
55068;BME280;40965;52.368;9.712;2023-09-12T05:08:07;100522.16;;;20.44;100.00
55068;BME280;40965;52.368;9.712;2023-09-12T05:10:33;100526.91;;;20.55;100.00
55068;BME280;40965;52.368;9.712;2023-09-12T05:13:00;100539.50;;;20.52;99.62
55068;BME280;40965;52.368;9.712;2023-09-12T05:15:26;100551.84;;;20.53;99.44
55068;BME280;40965;52.368;9.712;2023-09-12T05:17:53;100562.50;;;20.53;98.90
55068;BME280;40965;52.368;9.712;2023-09-12T05:20:20;100569.53;;;20.54;99.00
55068;BME280;40965;52.368;9.712;2023-09-12T05:22:46;100584.31;;;20.59;99.02
55068;BME280;40965;52.368;9.712;2023-09-12T05:25:13;100587.03;;;20.58;99.91
55068;BME280;40965;52.368;9.712;2023-09-12T05:27:40;100603.56;;;20.47;100.00
55068;BME280;40965;52.368;9.712;2023-09-12T05:30:07;100607.53;;;20.38;100.00
55068;BME280;40965;52.368;9.712;2023-09-12T05:32:33;100605.69;;;20.40;100.00
55068;BME280;40965;52.368;9.712;2023-09-12T05:35:02;100615.50;;;20.38;100.00
55068;BME280;40965;52.368;9.712;2023-09-12T05:37:28;100610.41;;;20.33;100.00
55068;BME280;40965;52.368;9.712;2023-09-12T05:39:55;100626.13;;;20.21;100.00
55068;BME280;40965;52.368;9.712;2023-09-12T05:42:22;100637.00;;;20.16;100.00
55068;BME280;40965;52.368;9.712;2023-09-12T05:44:49;100635.50;;;20.10;100.00
55068;BME280;40965;52.368;9.712;2023-09-12T05:47:19;100642.59;;;20.10;100.00
55068;BME280;40965;52.368;9.712;2023-09-12T05:49:46;100634.16;;;20.02;100.00
55068;BME280;40965;52.368;9.712;2023-09-12T05:52:12;100647.53;;;20.00;100.00
55068;BME280;40965;52.368;9.712;2023-09-12T05:54:39;100630.22;;;19.53;100.00
55068;BME280;40965;52.368;9.712;2023-09-12T05:57:07;100640.22;;;19.08;100.00
55068;BME280;40965;52.368;9.712;2023-09-12T05:59:38;100659.31;;;18.75;100.00
55068;BME280;40965;52.368;9.712;2023-09-12T06:02:05;100669.25;;;18.27;100.00
55068;BME280;40965;52.368;9.712;2023-09-12T06:04:33;100669.44;;;18.00;100.00
55068;BME280;40965;52.368;9.712;2023-09-12T06:07:02;100702.09;;;17.77;100.00
55068;BME280;40965;52.368;9.712;2023-09-12T06:09:29;100671.34;;;17.49;100.00
55068;BME280;40965;52.368;9.712;2023-09-12T06:11:56;100656.00;;;17.35;100.00
55068;BME280;40965;52.368;9.712;2023-09-12T06:14:23;100642.50;;;17.43;100.00
55068;BME280;40965;52.368;9.712;2023-09-12T06:16:51;100658.47;;;17.40;100.00
55068;BME280;40965;52.368;9.712;2023-09-12T06:19:18;100673.69;;;18.27;100.00
55068;BME280;40965;52.368;9.712;2023-09-12T06:21:45;100672.63;;;18.74;100.00
55068;BME280;40965;52.368;9.712;2023-09-12T06:24:18;100664.09;;;17.78;100.00
55068;BME280;40965;52.368;9.712;2023-09-12T06:26:47;100652.03;;;17.47;100.00
55068;BME280;40965;52.368;9.712;2023-09-12T06:29:14;100643.97;;;17.27;100.00
55068;BME280;40965;52.368;9.712;2023-09-12T06:31:40;100624.41;;;17.55;100.00
55068;BME280;40965;52.368;9.712;2023-09-12T06:34:09;100630.22;;;17.64;100.00
55068;BME280;40965;52.368;9.712;2023-09-12T06:36:36;100627.41;;;17.45;100.00
55068;BME280;40965;52.368;9.712;2023-09-12T06:39:04;100631.25;;;17.60;100.00
55068;BME280;40965;52.368;9.712;2023-09-12T06:41:30;100613.50;;;17.62;100.00
55068;BME280;40965;52.368;9.712;2023-09-12T06:43:57;100621.34;;;17.65;100.00
55068;BME280;40965;52.368;9.712;2023-09-12T06:46:26;100615.31;;;17.62;100.00
55068;BME280;40965;52.368;9.712;2023-09-12T06:48:53;100611.19;;;17.77;100.00
55068;BME280;40965;52.368;9.712;2023-09-12T06:51:25;100607.38;;;17.84;100.00
55068;BME280;40965;52.368;9.712;2023-09-12T06:53:52;100592.31;;;17.86;100.00
55068;BME280;40965;52.368;9.712;2023-09-12T06:56:19;100571.91;;;17.88;100.00
55068;BME280;40965;52.368;9.712;2023-09-12T06:58:47;100548.31;;;18.04;100.00
55068;BME280;40965;52.368;9.712;2023-09-12T07:01:14;100553.59;;;18.06;100.00
55068;BME280;40965;52.368;9.712;2023-09-12T07:03:40;100546.34;;;18.09;100.00
55068;BME280;40965;52.368;9.712;2023-09-12T07:06:07;100546.25;;;18.12;100.00
55068;BME280;40965;52.368;9.712;2023-09-12T07:08:33;100545.44;;;18.31;100.00
55068;BME280;40965;52.368;9.712;2023-09-12T07:11:01;100551.00;;;18.25;100.00
55068;BME280;40965;52.368;9.712;2023-09-12T07:13:31;100550.00;;;18.27;100.00
55068;BME280;40965;52.368;9.712;2023-09-12T07:16:02;100525.25;;;18.28;100.00
55068;BME280;40965;52.368;9.712;2023-09-12T07:18:32;100524.66;;;18.42;100.00
55068;BME280;40965;52.368;9.712;2023-09-12T07:21:03;100521.94;;;18.23;100.00
55068;BME280;40965;52.368;9.712;2023-09-12T07:23:31;100508.41;;;18.29;100.00
55068;BME280;40965;52.368;9.712;2023-09-12T07:25:58;100498.94;;;18.24;100.00
55068;BME280;40965;52.368;9.712;2023-09-12T07:28:26;100478.88;;;18.39;100.00
55068;BME280;40965;52.368;9.712;2023-09-12T07:30:56;100477.44;;;18.50;100.00
55068;BME280;40965;52.368;9.712;2023-09-12T07:33:23;100480.28;;;18.46;100.00
55068;BME280;40965;52.368;9.712;2023-09-12T07:35:52;100510.81;;;18.75;100.00
55068;BME280;40965;52.368;9.712;2023-09-12T07:38:21;100534.25;;;19.05;100.00
55068;BME280;40965;52.368;9.712;2023-09-12T07:40:48;100549.66;;;19.16;100.00
55068;BME280;40965;52.368;9.712;2023-09-12T07:43:15;100555.31;;;19.27;100.00
55068;BME280;40965;52.368;9.712;2023-09-12T07:45:41;100559.69;;;19.47;100.00
55068;BME280;40965;52.368;9.712;2023-09-12T07:48:09;100569.94;;;19.55;100.00
55068;BME280;40965;52.368;9.712;2023-09-12T07:50:37;100544.38;;;19.53;100.00
55068;BME280;40965;52.368;9.712;2023-09-12T07:53:07;100534.41;;;19.58;100.00
55068;BME280;40965;52.368;9.712;2023-09-12T07:55:37;100539.06;;;19.72;100.00
55068;BME280;40965;52.368;9.712;2023-09-12T07:58:14;100544.66;;;19.85;100.00
55068;BME280;40965;52.368;9.712;2023-09-12T08:00:43;100548.97;;;20.05;100.00
55068;BME280;40965;52.368;9.712;2023-09-12T08:03:13;100556.16;;;20.20;100.00
55068;BME280;40965;52.368;9.712;2023-09-12T08:05:41;100575.56;;;20.40;100.00
55068;BME280;40965;52.368;9.712;2023-09-12T08:08:08;100604.66;;;20.43;100.00
55068;BME280;40965;52.368;9.712;2023-09-12T08:10:34;100629.19;;;20.30;100.00
55068;BME280;40965;52.368;9.712;2023-09-12T08:13:01;100635.97;;;20.19;100.00
55068;BME280;40965;52.368;9.712;2023-09-12T08:15:28;100647.97;;;20.27;100.00
55068;BME280;40965;52.368;9.712;2023-09-12T08:17:54;100661.66;;;20.37;100.00
55068;BME280;40965;52.368;9.712;2023-09-12T08:20:21;100668.31;;;20.46;100.00
55068;BME280;40965;52.368;9.712;2023-09-12T08:22:47;100675.91;;;20.54;100.00
55068;BME280;40965;52.368;9.712;2023-09-12T08:25:15;100675.19;;;20.50;100.00
55068;BME280;40965;52.368;9.712;2023-09-12T08:27:41;100688.94;;;20.58;100.00
55068;BME280;40965;52.368;9.712;2023-09-12T08:30:10;100702.22;;;20.77;100.00
55068;BME280;40965;52.368;9.712;2023-09-12T08:32:38;100706.06;;;20.72;100.00
55068;BME280;40965;52.368;9.712;2023-09-12T08:35:10;100709.09;;;20.81;100.00
55068;BME280;40965;52.368;9.712;2023-09-12T08:37:39;100702.75;;;20.84;100.00
55068;BME280;40965;52.368;9.712;2023-09-12T08:40:07;100711.63;;;20.85;100.00
55068;BME280;40965;52.368;9.712;2023-09-12T08:42:42;100696.19;;;20.91;100.00
55068;BME280;40965;52.368;9.712;2023-09-12T08:45:17;100702.81;;;21.00;100.00
55068;BME280;40965;52.368;9.712;2023-09-12T08:47:49;100703.84;;;20.97;100.00
55068;BME280;40965;52.368;9.712;2023-09-12T08:50:16;100707.69;;;20.92;100.00
55068;BME280;40965;52.368;9.712;2023-09-12T08:52:44;100696.19;;;20.91;100.00
55068;BME280;40965;52.368;9.712;2023-09-12T08:55:14;100697.84;;;20.94;100.00
55068;BME280;40965;52.368;9.712;2023-09-12T08:57:42;100704.88;;;20.95;100.00
55068;BME280;40965;52.368;9.712;2023-09-12T09:00:10;100699.00;;;21.06;100.00
55068;BME280;40965;52.368;9.712;2023-09-12T09:02:40;100713.97;;;21.08;100.00
55068;BME280;40965;52.368;9.712;2023-09-12T09:05:08;100722.41;;;20.99;100.00
55068;BME280;40965;52.368;9.712;2023-09-12T09:07:38;100731.28;;;20.82;100.00
55068;BME280;40965;52.368;9.712;2023-09-12T09:10:06;100741.28;;;20.77;100.00
55068;BME280;40965;52.368;9.712;2023-09-12T09:12:35;100745.59;;;20.60;100.00
55068;BME280;40965;52.368;9.712;2023-09-12T09:15:21;100749.00;;;20.45;100.00
55068;BME280;40965;52.368;9.712;2023-09-12T09:17:52;100752.56;;;20.26;100.00
55068;BME280;40965;52.368;9.712;2023-09-12T09:20:31;100750.72;;;20.09;100.00
55068;BME280;40965;52.368;9.712;2023-09-12T09:23:07;100741.59;;;19.96;100.00
55068;BME280;40965;52.368;9.712;2023-09-12T09:25:51;100748.84;;;19.92;100.00
55068;BME280;40965;52.368;9.712;2023-09-12T09:28:20;100785.59;;;19.82;100.00
55068;BME280;40965;52.368;9.712;2023-09-12T09:30:49;100808.09;;;19.74;100.00
55068;BME280;40965;52.368;9.712;2023-09-12T09:33:19;100769.19;;;19.73;100.00
55068;BME280;40965;52.368;9.712;2023-09-12T09:35:47;100748.03;;;19.71;100.00
55068;BME280;40965;52.368;9.712;2023-09-12T09:38:19;100761.19;;;19.54;100.00
55068;BME280;40965;52.368;9.712;2023-09-12T09:40:45;100775.75;;;19.04;100.00
55068;BME280;40965;52.368;9.712;2023-09-12T09:43:12;100729.38;;;18.70;100.00
55068;BME280;40965;52.368;9.712;2023-09-12T09:45:44;100707.94;;;18.54;100.00
55068;BME280;40965;52.368;9.712;2023-09-12T09:50:53;100740.63;;;18.32;100.00
55068;BME280;40965;52.368;9.712;2023-09-12T09:53:26;100715.66;;;18.38;100.00
55068;BME280;40965;52.368;9.712;2023-09-12T09:56:07;100769.34;;;18.43;100.00
55068;BME280;40965;52.368;9.712;2023-09-12T09:58:34;100761.69;;;18.35;100.00
55068;BME280;40965;52.368;9.712;2023-09-12T10:01:01;100723.66;;;18.36;100.00
55068;BME280;40965;52.368;9.712;2023-09-12T10:03:29;100715.50;;;18.41;100.00
55068;BME280;40965;52.368;9.712;2023-09-12T10:06:00;100719.13;;;18.40;100.00
55068;BME280;40965;52.368;9.712;2023-09-12T10:08:31;100715.50;;;18.41;100.00
55068;BME280;40965;52.368;9.712;2023-09-12T10:10:58;100737.47;;;18.44;100.00
55068;BME280;40965;52.368;9.712;2023-09-12T10:13:27;100723.97;;;18.50;100.00
55068;BME280;40965;52.368;9.712;2023-09-12T10:15:59;100696.69;;;18.69;100.00
55068;BME280;40965;52.368;9.712;2023-09-12T10:18:35;100724.28;;;18.85;100.00
55068;BME280;40965;52.368;9.712;2023-09-12T10:21:15;100710.59;;;18.96;100.00
55068;BME280;40965;52.368;9.712;2023-09-12T10:23:46;100712.84;;;19.06;100.00
55068;BME280;40965;52.368;9.712;2023-09-12T10:26:16;100718.28;;;19.03;100.00
55068;BME280;40965;52.368;9.712;2023-09-12T10:28:43;100710.53;;;18.98;100.00
55068;BME280;40965;52.368;9.712;2023-09-12T10:31:12;100707.19;;;18.93;100.00
55068;BME280;40965;52.368;9.712;2023-09-12T10:33:39;100691.09;;;18.97;100.00
55068;BME280;40965;52.368;9.712;2023-09-12T10:36:08;100679.41;;;19.01;100.00
55068;BME280;40965;52.368;9.712;2023-09-12T10:38:42;100682.00;;;19.03;100.00
55068;BME280;40965;52.368;9.712;2023-09-12T10:41:14;100678.94;;;19.12;100.00
55068;BME280;40965;52.368;9.712;2023-09-12T10:43:43;100667.75;;;19.06;100.00
55068;BME280;40965;52.368;9.712;2023-09-12T10:46:15;100677.81;;;19.18;100.00
55068;BME280;40965;52.368;9.712;2023-09-12T10:48:42;100701.81;;;19.15;100.00
55068;BME280;40965;52.368;9.712;2023-09-12T10:51:10;100689.75;;;19.28;100.00
55068;BME280;40965;52.368;9.712;2023-09-12T10:53:38;100683.63;;;19.26;100.00
55068;BME280;40965;52.368;9.712;2023-09-12T10:56:16;100685.03;;;19.35;100.00
55068;BME280;40965;52.368;9.712;2023-09-12T11:01:30;100705.91;;;19.43;100.00
55068;BME280;40965;52.368;9.712;2023-09-12T11:03:57;100679.38;;;19.43;100.00
55068;BME280;40965;52.368;9.712;2023-09-12T11:06:36;100663.22;;;19.47;100.00
55068;BME280;40965;52.368;9.712;2023-09-12T11:09:25;100681.97;;;19.63;100.00
55068;BME280;40965;52.368;9.712;2023-09-12T11:12:02;100701.63;;;19.59;100.00
55068;BME280;40965;52.368;9.712;2023-09-12T11:14:33;100738.28;;;19.51;100.00
55068;BME280;40965;52.368;9.712;2023-09-12T11:19:46;100734.66;;;19.33;100.00
55068;BME280;40965;52.368;9.712;2023-09-12T11:22:28;100754.22;;;19.30;100.00
55068;BME280;40965;52.368;9.712;2023-09-12T11:25:01;100744.81;;;19.23;100.00
55068;BME280;40965;52.368;9.712;2023-09-12T11:28:02;100735.22;;;19.21;100.00
55068;BME280;40965;52.368;9.712;2023-09-12T11:30:31;100748.34;;;19.24;100.00
55068;BME280;40965;52.368;9.712;2023-09-12T11:32:59;100770.69;;;19.18;100.00
55068;BME280;40965;52.368;9.712;2023-09-12T11:35:28;100749.59;;;19.15;100.00
55068;BME280;40965;52.368;9.712;2023-09-12T11:37:59;100753.78;;;19.00;100.00
55068;BME280;40965;52.368;9.712;2023-09-12T11:43:02;100741.31;;;18.37;100.00
55068;BME280;40965;52.368;9.712;2023-09-12T11:45:30;100753.88;;;18.32;100.00
55068;BME280;40965;52.368;9.712;2023-09-12T11:47:58;100767.78;;;18.15;100.00
55068;BME280;40965;52.368;9.712;2023-09-12T11:50:35;100795.31;;;18.11;100.00
55068;BME280;40965;52.368;9.712;2023-09-12T11:53:05;100784.50;;;17.92;100.00
55068;BME280;40965;52.368;9.712;2023-09-12T11:55:44;100757.78;;;17.74;100.00
55068;BME280;40965;52.368;9.712;2023-09-12T11:58:16;100744.97;;;17.63;100.00
55068;BME280;40965;52.368;9.712;2023-09-12T12:00:55;100719.47;;;17.61;100.00
55068;BME280;40965;52.368;9.712;2023-09-12T12:03:24;100706.06;;;17.65;100.00
55068;BME280;40965;52.368;9.712;2023-09-12T12:05:54;100681.56;;;17.60;100.00
55068;BME280;40965;52.368;9.712;2023-09-12T12:08:24;100656.84;;;17.60;100.00
55068;BME280;40965;52.368;9.712;2023-09-12T12:10:53;100696.47;;;17.63;100.00
55068;BME280;40965;52.368;9.712;2023-09-12T12:13:22;100684.81;;;17.67;100.00
55068;BME280;40965;52.368;9.712;2023-09-12T12:15:48;100677.78;;;17.66;100.00
55068;BME280;40965;52.368;9.712;2023-09-12T12:18:15;100665.53;;;17.63;100.00
55068;BME280;40965;52.368;9.712;2023-09-12T12:20:42;100656.38;;;17.72;100.00
55068;BME280;40965;52.368;9.712;2023-09-12T12:23:09;100661.00;;;17.67;100.00
55068;BME280;40965;52.368;9.712;2023-09-12T12:25:36;100665.25;;;17.71;100.00
55068;BME280;40965;52.368;9.712;2023-09-12T12:28:03;100665.25;;;17.71;100.00
55068;BME280;40965;52.368;9.712;2023-09-12T12:30:31;100653.69;;;17.74;100.00
55068;BME280;40965;52.368;9.712;2023-09-12T12:33:01;100652.41;;;17.84;100.00
55068;BME280;40965;52.368;9.712;2023-09-12T12:35:36;100644.63;;;17.79;100.00
55068;BME280;40965;52.368;9.712;2023-09-12T12:38:03;100645.38;;;17.83;100.00
55068;BME280;40965;52.368;9.712;2023-09-12T12:40:30;100649.00;;;17.80;100.00
55068;BME280;40965;52.368;9.712;2023-09-12T12:42:59;100639.09;;;17.85;100.00
55068;BME280;40965;52.368;9.712;2023-09-12T12:45:26;100635.31;;;17.93;100.00
55068;BME280;40965;52.368;9.712;2023-09-12T12:48:00;100636.53;;;18.06;100.00
55068;BME280;40965;52.368;9.712;2023-09-12T12:50:27;100644.06;;;18.17;100.00
55068;BME280;40965;52.368;9.712;2023-09-12T12:52:53;100642.69;;;18.29;100.00
55068;BME280;40965;52.368;9.712;2023-09-12T12:55:21;100634.47;;;18.35;100.00
55068;BME280;40965;52.368;9.712;2023-09-12T12:57:48;100635.44;;;18.55;100.00
55068;BME280;40965;52.368;9.712;2023-09-12T13:00:16;100634.63;;;18.73;100.00
55068;BME280;40965;52.368;9.712;2023-09-12T13:02:44;100644.91;;;18.81;100.00